Maple Park, Illinois
Current Conditions -  °F | °C
As of 9:35 AM on Saturday 20 Dec 2014 (Local Time) from KDKB Reporting Station
Haze Haze  
Wind Chill: 26°   Ceiling: 6000
Heat Index: 26°   Visibility: 4mi
Dew Point: 24°   Wind: 0mph
Humidity: 90%   Direction: NA
Pressure: 30.27"   Gusts: NA
Location:  41.91°N, 88.6°W
Report Text: KDKB 201535Z AUTO 00000KT 4SM BR SCT038 OVC060 M03/M04 A3027 RMK AO2 T10311045
Loading
Personal Weather Stations






























Interactive Weather Map New forecast layout! Learn more

10-Day Weather Forecast

Advertisements
Track Severe Weather on mobile